createdAt,value
2019-04-16T00:01:03.174Z,6.40
2019-04-16T00:03:33.502Z,7.25
2019-04-16T00:06:24.043Z,6.60
2019-04-16T00:08:57.325Z,7.15
2019-04-16T00:11:35.525Z,6.97
2019-04-16T00:14:10.580Z,6.47
2019-04-16T00:16:41.386Z,6.20
2019-04-16T00:19:12.976Z,6.20
2019-04-16T00:21:50.939Z,7.10
2019-04-16T00:24:28.631Z,6.85
2019-04-16T00:27:00.019Z,6.67
2019-04-16T00:29:33.048Z,6.58
2019-04-16T00:32:07.893Z,6.90
2019-04-16T00:34:34.846Z,6.87
2019-04-16T00:37:05.184Z,6.28
2019-04-16T00:39:35.523Z,6.78
2019-04-16T00:42:05.873Z,6.55
2019-04-16T00:44:36.221Z,6.67
2019-04-16T00:47:06.561Z,6.75
2019-04-16T00:49:38.061Z,6.62
2019-04-16T00:52:08.589Z,7.08
2019-04-16T00:54:39.335Z,6.80
2019-04-16T00:57:10.971Z,6.17
2019-04-16T00:59:41.308Z,6.78
2019-04-16T01:02:11.645Z,7.00
2019-04-16T01:04:41.990Z,6.35
2019-04-16T01:07:12.321Z,7.05
2019-04-16T01:09:42.678Z,6.90
2019-04-16T01:12:13.017Z,7.55
2019-04-16T01:14:43.387Z,7.17
2019-04-16T01:17:14.862Z,7.40
2019-04-16T01:19:46.272Z,6.62
2019-04-16T01:22:16.858Z,6.90
2019-04-16T01:24:51.694Z,7.45
2019-04-16T01:27:20.954Z,6.87
2019-04-16T01:29:51.301Z,6.50
2019-04-16T01:32:42.407Z,7.00
2019-04-16T01:35:28.286Z,7.20
2019-04-16T01:38:16.370Z,6.78
2019-04-16T01:41:00.310Z,6.53
2019-04-16T01:43:30.712Z,7.28
2019-04-16T01:46:02.350Z,7.05
2019-04-16T01:48:33.068Z,7.45
2019-04-16T01:51:03.432Z,7.78
2019-04-16T01:53:33.777Z,7.65
2019-04-16T01:56:04.113Z,6.33
2019-04-16T01:58:34.658Z,6.55
2019-04-16T02:01:05.235Z,7.00
2019-04-16T02:03:35.616Z,6.95
2019-04-16T02:06:05.962Z,6.80
2019-04-16T02:08:36.382Z,6.67
2019-04-16T02:11:09.821Z,6.70
2019-04-16T02:13:38.771Z,6.50
2019-04-16T02:16:09.115Z,6.40
2019-04-16T02:18:39.447Z,7.53
2019-04-16T02:21:11.140Z,6.87
2019-04-16T02:23:41.713Z,6.58
2019-04-16T02:26:12.071Z,7.53
2019-04-16T02:28:42.425Z,6.72
2019-04-16T02:31:15.355Z,6.65
2019-04-16T02:33:44.806Z,6.75
2019-04-16T02:36:15.165Z,7.45
2019-04-16T02:38:52.424Z,7.53
2019-04-16T02:41:18.580Z,6.97
2019-04-16T02:43:49.045Z,7.53
2019-04-16T02:46:19.377Z,7.42
2019-04-16T02:48:51.390Z,6.83
2019-04-16T02:51:32.630Z,6.75
2019-04-16T02:54:13.758Z,7.42
2019-04-16T02:57:07.986Z,7.28
2019-04-16T02:59:45.993Z,7.22
2019-04-16T03:02:26.224Z,7.15
2019-04-16T03:05:01.712Z,7.10
2019-04-16T03:07:32.742Z,7.20
2019-04-16T03:10:04.873Z,7.67
2019-04-16T03:12:35.299Z,6.90
2019-04-16T03:15:07.842Z,7.65
2019-04-16T03:17:42.914Z,7.03
2019-04-16T03:20:13.665Z,7.08
2019-04-16T03:22:44.006Z,8.20
2019-04-16T03:25:14.844Z,7.05
2019-04-16T03:27:45.166Z,7.37
2019-04-16T03:30:15.774Z,7.12
2019-04-16T03:32:49.890Z,7.55
2019-04-16T03:35:25.503Z,7.17
2019-04-16T03:37:52.439Z,7.80
2019-04-16T03:40:25.587Z,7.20
2019-04-16T03:42:58.941Z,6.75
2019-04-16T03:45:26.856Z,7.65
2019-04-16T03:47:58.218Z,7.22
2019-04-16T03:50:31.356Z,7.35
2019-04-16T03:53:00.603Z,8.30
2019-04-16T03:55:30.996Z,6.87
2019-04-16T03:58:05.246Z,8.20
2019-04-16T04:00:34.465Z,7.20
2019-04-16T04:03:04.818Z,7.83
2019-04-16T04:05:35.817Z,8.00
2019-04-16T04:08:06.187Z,7.22
2019-04-16T04:10:37.738Z,7.33
2019-04-16T04:13:08.522Z,7.20
2019-04-16T04:15:39.891Z,7.92
2019-04-16T04:18:11.818Z,7.55
2019-04-16T04:20:42.598Z,7.58
2019-04-16T04:23:13.036Z,7.50
2019-04-16T04:25:43.368Z,7.58
2019-04-16T04:28:18.747Z,7.75
2019-04-16T04:30:48.586Z,7.50
2019-04-16T04:33:40.941Z,7.45
2019-04-16T04:36:10.654Z,7.40
2019-04-16T04:38:41.559Z,7.55
2019-04-16T04:41:11.910Z,7.28
2019-04-16T04:43:42.268Z,7.37
2019-04-16T04:46:14.782Z,8.70
2019-04-16T04:48:44.662Z,7.95
2019-04-16T04:51:15.334Z,8.05
2019-04-16T04:53:47.567Z,7.60
2019-04-16T04:56:19.569Z,8.13
2019-04-16T04:58:49.689Z,7.53
2019-04-16T05:01:20.027Z,7.70
2019-04-16T05:04:04.028Z,7.95
2019-04-16T05:06:38.834Z,6.80
2019-04-16T05:09:09.350Z,7.83
2019-04-16T05:11:39.692Z,8.10
2019-04-16T05:14:10.211Z,7.45
2019-04-16T05:16:40.463Z,7.75
2019-04-16T05:19:13.825Z,7.75
2019-04-16T05:21:42.857Z,8.35
2019-04-16T05:24:13.210Z,7.80
2019-04-16T05:26:43.550Z,7.67
2019-04-16T05:29:17.057Z,7.70
2019-04-16T05:31:45.927Z,8.10
2019-04-16T05:34:17.928Z,7.42
2019-04-16T05:36:48.383Z,7.83
2019-04-16T05:39:18.717Z,7.80
2019-04-16T05:41:50.448Z,7.53
2019-04-16T05:44:21.095Z,8.43
2019-04-16T05:46:51.430Z,8.10
2019-04-16T05:49:24.680Z,8.00
2019-04-16T05:51:53.847Z,7.53
2019-04-16T05:54:28.685Z,8.65
2019-04-16T05:57:00.657Z,7.90
2019-04-16T05:59:33.789Z,8.25
2019-04-16T06:02:07.865Z,7.72
2019-04-16T06:04:39.134Z,7.58
2019-04-16T06:07:10.615Z,7.60
2019-04-16T06:09:41.535Z,8.43
2019-04-16T06:12:13.002Z,8.78
2019-04-16T06:14:46.408Z,7.28
2019-04-16T06:17:21.360Z,7.03
2019-04-16T06:19:53.357Z,7.08
2019-04-16T06:22:31.367Z,7.72
2019-04-16T06:25:19.466Z,7.35
2019-04-16T06:27:51.437Z,8.40
2019-04-16T06:30:39.557Z,7.50
2019-04-16T06:33:14.236Z,7.60
2019-04-16T06:36:07.508Z,7.70
2019-04-16T06:38:51.699Z,7.12
2019-04-16T06:41:40.809Z,8.40
2019-04-16T06:44:04.137Z,7.97
2019-04-16T06:46:39.388Z,7.33
2019-04-16T06:49:14.297Z,8.98
2019-04-16T06:51:53.672Z,7.15
2019-04-16T06:54:32.067Z,7.95
2019-04-16T06:57:05.494Z,8.28
2019-04-16T06:59:53.944Z,7.97
2019-04-16T07:02:31.581Z,7.70
2019-04-16T07:05:06.305Z,6.97
2019-04-16T07:07:46.783Z,7.40
2019-04-16T07:10:17.843Z,7.67
2019-04-16T07:12:48.311Z,7.47
2019-04-16T07:15:22.595Z,7.42
2019-04-16T07:17:51.188Z,7.45
2019-04-16T07:20:21.731Z,7.70
2019-04-16T07:22:53.017Z,7.22
2019-04-16T07:25:27.150Z,7.72
2019-04-16T07:27:58.650Z,7.70
2019-04-16T07:30:30.961Z,7.78
2019-04-16T07:33:11.702Z,7.65
2019-04-16T07:35:55.882Z,7.58
2019-04-16T07:38:27.867Z,7.45
2019-04-16T07:41:12.389Z,7.85
2019-04-16T07:44:04.394Z,7.97
2019-04-16T07:46:37.125Z,8.13
2019-04-16T07:49:26.508Z,7.53
2019-04-16T07:52:16.770Z,7.87
2019-04-16T07:55:03.817Z,7.95
2019-04-16T07:57:34.123Z,7.92
2019-04-16T08:00:23.517Z,7.62
2019-04-16T08:02:58.563Z,8.48
2019-04-16T08:05:28.933Z,7.22
2019-04-16T08:08:00.869Z,7.20
2019-04-16T08:10:31.210Z,7.50
2019-04-16T08:13:03.262Z,7.42
2019-04-16T08:15:33.678Z,8.00
2019-04-16T08:18:04.027Z,6.95
2019-04-16T08:20:34.456Z,7.55
2019-04-16T08:23:22.593Z,8.10
2019-04-16T08:26:11.393Z,7.58
2019-04-16T08:28:37.027Z,8.63
2019-04-16T08:31:12.302Z,8.18
2019-04-16T08:33:41.042Z,8.40
2019-04-16T08:36:11.396Z,7.45
2019-04-16T08:38:41.736Z,7.87
2019-04-16T08:41:13.320Z,7.60
2019-04-16T08:43:43.758Z,7.92
2019-04-16T08:46:14.100Z,9.25
2019-04-16T08:48:48.901Z,7.92
2019-04-16T08:51:29.719Z,8.25
2019-04-16T08:53:48.531Z,8.53
2019-04-16T08:56:18.862Z,8.20
2019-04-16T08:58:49.217Z,8.18
2019-04-16T09:01:23.580Z,7.55
2019-04-16T09:03:53.257Z,9.03
2019-04-16T09:06:23.604Z,9.08
2019-04-16T09:09:12.705Z,8.80
2019-04-16T09:11:36.741Z,8.05
2019-04-16T09:14:08.774Z,8.73
2019-04-16T09:16:46.603Z,8.40
2019-04-16T09:19:18.713Z,8.40
2019-04-16T09:21:49.081Z,8.98
2019-04-16T09:24:27.185Z,9.25
2019-04-16T09:26:59.187Z,8.70
2019-04-16T09:29:31.164Z,8.85
2019-04-16T09:32:08.887Z,9.08
2019-04-16T09:35:07.969Z,7.92
2019-04-16T09:37:46.999Z,9.00
2019-04-16T09:40:34.898Z,8.93
2019-04-16T09:43:17.595Z,9.00
2019-04-16T09:45:44.981Z,8.33
2019-04-16T09:48:15.320Z,9.03
2019-04-16T09:50:47.834Z,8.93
2019-04-16T09:53:17.729Z,9.03
2019-04-16T09:55:50.617Z,8.45
2019-04-16T09:58:22.594Z,8.38
2019-04-16T10:01:06.891Z,8.85
2019-04-16T10:03:41.833Z,9.20
2019-04-16T10:06:12.182Z,9.35
2019-04-16T10:08:45.037Z,8.68
2019-04-16T10:11:18.172Z,9.90
2019-04-16T10:13:47.007Z,9.90
2019-04-16T10:16:19.263Z,9.28
2019-04-16T10:18:49.672Z,9.95
2019-04-16T10:21:20.357Z,9.73
2019-04-16T10:23:53.465Z,9.55
2019-04-16T10:26:23.800Z,10.82
2019-04-16T10:28:55.422Z,10.45
2019-04-16T10:31:27.261Z,9.80
2019-04-16T10:33:57.573Z,9.65
2019-04-16T10:36:27.912Z,9.28
2019-04-16T10:39:16.999Z,10.30
2019-04-16T10:41:48.994Z,10.00
2019-04-16T10:44:20.991Z,10.60
2019-04-16T10:46:52.981Z,10.20
2019-04-16T10:49:33.794Z,10.70
2019-04-16T10:52:08.245Z,9.75
2019-04-16T10:54:43.172Z,9.80
2019-04-16T10:57:15.341Z,10.43
2019-04-16T10:59:53.075Z,10.95
2019-04-16T11:02:25.067Z,10.58
2019-04-16T11:05:19.303Z,10.80
2019-04-16T11:07:50.597Z,10.08
2019-04-16T11:10:22.637Z,10.30
2019-04-16T11:12:53.049Z,10.95
2019-04-16T11:15:25.272Z,10.55
2019-04-16T11:17:55.616Z,10.20
2019-04-16T11:20:27.030Z,10.70
2019-04-16T11:22:57.393Z,10.60
2019-04-16T11:25:27.704Z,10.38
2019-04-16T11:27:58.058Z,12.07
2019-04-16T11:30:33.001Z,10.88
2019-04-16T11:33:03.592Z,10.85
2019-04-16T11:35:34.081Z,11.15
2019-04-16T11:38:05.095Z,11.18
2019-04-16T11:40:35.493Z,10.93
2019-04-16T11:43:05.859Z,10.30
2019-04-16T11:45:36.240Z,11.43
2019-04-16T11:48:07.012Z,11.12
2019-04-16T11:50:37.424Z,11.33
2019-04-16T11:53:07.862Z,11.28
2019-04-16T11:55:38.213Z,10.78
2019-04-16T11:58:10.198Z,11.28
2019-04-16T12:00:48.172Z,11.57
2019-04-16T12:03:20.172Z,10.98
2019-04-16T12:05:58.041Z,11.78
2019-04-16T12:08:46.228Z,12.15
2019-04-16T12:11:21.106Z,10.88
2019-04-16T12:14:04.150Z,11.68
2019-04-16T12:16:41.574Z,11.48
2019-04-16T12:19:29.850Z,11.40
2019-04-16T12:22:10.632Z,11.22
2019-04-16T12:24:54.894Z,11.03
2019-04-16T12:27:26.897Z,11.43
2019-04-16T12:30:14.198Z,11.03
2019-04-16T12:32:57.856Z,12.40
2019-04-16T12:35:35.957Z,12.37
2019-04-16T12:38:11.987Z,11.53
2019-04-16T12:40:47.372Z,12.58
2019-04-16T12:43:22.095Z,12.58
2019-04-16T12:46:10.468Z,12.50
2019-04-16T12:48:54.476Z,12.10
2019-04-16T12:51:43.149Z,12.47
2019-04-16T12:54:25.615Z,11.90
2019-04-16T12:57:04.032Z,11.88
2019-04-16T12:59:54.635Z,11.73
2019-04-16T13:02:27.957Z,12.15
2019-04-16T13:05:21.052Z,11.75
2019-04-16T13:07:57.870Z,13.20
2019-04-16T13:10:29.884Z,12.00
2019-04-16T13:13:01.873Z,12.78
2019-04-16T13:15:39.631Z,11.75
2019-04-16T13:18:14.520Z,12.50
2019-04-16T13:21:05.121Z,12.47
2019-04-16T13:23:39.504Z,11.70
2019-04-16T13:26:13.984Z,11.65
2019-04-16T13:28:44.311Z,12.55
2019-04-16T13:31:14.673Z,12.00
2019-04-16T13:33:46.185Z,13.40
2019-04-16T13:36:17.146Z,12.13
2019-04-16T13:39:07.765Z,11.97
2019-04-16T13:41:39.541Z,11.78
2019-04-16T13:44:16.909Z,11.30
2019-04-16T13:46:46.100Z,11.70
2019-04-16T13:49:24.207Z,11.88
2019-04-16T13:51:52.859Z,11.83
2019-04-16T13:54:28.313Z,12.23
2019-04-16T13:57:00.378Z,11.55
2019-04-16T13:59:48.572Z,11.05
2019-04-16T14:02:23.483Z,12.18
2019-04-16T14:04:54.048Z,12.55
2019-04-16T14:07:25.579Z,12.07
2019-04-16T14:09:57.004Z,13.03
2019-04-16T14:12:41.277Z,12.43
2019-04-16T14:14:59.667Z,10.98
2019-04-16T14:17:30.122Z,11.50
2019-04-16T14:20:00.552Z,11.70
2019-04-16T14:22:30.938Z,10.38
2019-04-16T14:25:01.264Z,12.37
2019-04-16T14:27:31.624Z,12.78
2019-04-16T14:30:09.995Z,12.05
2019-04-16T14:32:37.040Z,12.60
2019-04-16T14:35:09.507Z,12.78
2019-04-16T14:37:39.847Z,12.20
2019-04-16T14:40:18.766Z,11.85
2019-04-16T14:42:49.316Z,12.30
2019-04-16T14:45:50.122Z,12.35
2019-04-16T14:48:08.902Z,12.15
2019-04-16T14:50:38.148Z,11.60
2019-04-16T14:53:08.502Z,10.38
2019-04-16T14:55:58.713Z,12.28
2019-04-16T14:58:29.016Z,11.68
2019-04-16T15:01:01.009Z,12.00
2019-04-16T15:03:49.449Z,11.68
2019-04-16T15:06:24.147Z,11.60
2019-04-16T15:09:03.187Z,11.95
2019-04-16T15:11:53.522Z,11.75
2019-04-16T15:14:26.142Z,12.03
2019-04-16T15:17:04.870Z,13.18
2019-04-16T15:19:36.860Z,11.78
2019-04-16T15:22:24.704Z,13.20
2019-04-16T15:25:02.421Z,12.88
2019-04-16T15:27:34.404Z,11.97
2019-04-16T15:30:28.557Z,12.88
2019-04-16T15:33:07.154Z,12.20
2019-04-16T15:35:40.328Z,14.38
2019-04-16T15:38:20.813Z,12.37
2019-04-16T15:40:55.966Z,11.97
2019-04-16T15:43:43.166Z,13.10
2019-04-16T15:46:26.183Z,13.40
2019-04-16T15:49:00.648Z,12.65
2019-04-16T15:51:32.653Z,13.03
2019-04-16T15:54:10.347Z,13.20
2019-04-16T15:56:42.483Z,13.58
2019-04-16T15:59:20.426Z,13.35
2019-04-16T16:01:55.109Z,13.18
2019-04-16T16:04:32.878Z,13.40
2019-04-16T16:07:07.932Z,12.50
2019-04-16T16:09:58.079Z,12.33
2019-04-16T16:12:27.790Z,13.28
2019-04-16T16:14:58.145Z,12.58
2019-04-16T16:17:28.501Z,14.78
2019-04-16T16:19:58.862Z,13.38
2019-04-16T16:22:29.220Z,13.98
2019-04-16T16:24:59.618Z,13.65
2019-04-16T16:27:29.958Z,12.68
2019-04-16T16:30:00.313Z,13.28
2019-04-16T16:32:30.664Z,13.90
2019-04-16T16:35:01.013Z,12.23
2019-04-16T16:37:33.876Z,14.07
2019-04-16T16:40:04.337Z,13.22
2019-04-16T16:42:34.958Z,12.75
2019-04-16T16:45:06.640Z,13.62
2019-04-16T16:47:39.860Z,13.38
2019-04-16T16:50:12.824Z,13.20
2019-04-16T16:52:49.999Z,13.72
2019-04-16T16:55:27.879Z,13.55
2019-04-16T16:57:59.872Z,12.98
2019-04-16T17:00:48.156Z,12.23
2019-04-16T17:03:25.877Z,12.88
2019-04-16T17:05:57.497Z,14.13
2019-04-16T17:08:30.245Z,12.43
2019-04-16T17:11:14.578Z,13.05
2019-04-16T17:13:31.954Z,12.50
2019-04-16T17:16:02.315Z,12.60
2019-04-16T17:18:32.663Z,12.73
2019-04-16T17:21:03.011Z,12.88
2019-04-16T17:23:33.379Z,13.35
2019-04-16T17:26:03.715Z,11.80
2019-04-16T17:28:34.072Z,12.30
2019-04-16T17:31:04.417Z,11.80
2019-04-16T17:33:34.839Z,12.78
2019-04-16T17:36:05.538Z,12.90
2019-04-16T17:38:36.849Z,12.55
2019-04-16T17:41:12.494Z,12.20
2019-04-16T17:44:01.896Z,12.88
2019-04-16T17:46:30.151Z,16.60
2019-04-16T17:49:02.141Z,11.75
2019-04-16T17:51:40.099Z,12.13
2019-04-16T17:54:12.099Z,13.40
2019-04-16T17:56:46.793Z,12.78
2019-04-16T17:59:21.717Z,12.53
2019-04-16T18:02:10.114Z,12.07
2019-04-16T18:04:58.506Z,12.78
2019-04-16T18:07:45.809Z,12.47
2019-04-16T18:10:27.129Z,15.28
2019-04-16T18:13:01.783Z,13.10
2019-04-16T18:15:51.993Z,12.05
2019-04-16T18:18:26.995Z,12.80
2019-04-16T18:21:15.276Z,12.68
2019-04-16T18:23:47.265Z,11.83
2019-04-16T18:26:22.508Z,13.03
2019-04-16T18:29:03.524Z,11.53
2019-04-16T18:31:35.513Z,12.07
2019-04-16T18:34:19.753Z,13.10
2019-04-16T18:37:07.928Z,11.90
2019-04-16T18:39:42.645Z,11.75
2019-04-16T18:42:17.372Z,13.05
2019-04-16T18:44:55.004Z,12.43
2019-04-16T18:47:35.227Z,12.75
2019-04-16T18:50:12.361Z,12.30
2019-04-16T18:52:42.714Z,11.57
2019-04-16T18:55:14.159Z,13.03
2019-04-16T18:57:44.540Z,13.22
2019-04-16T19:00:32.148Z,12.63
2019-04-16T19:03:01.479Z,12.50
2019-04-16T19:05:31.919Z,11.88
2019-04-16T19:08:02.264Z,12.15
2019-04-16T19:10:32.604Z,11.83
2019-04-16T19:13:09.622Z,11.08
2019-04-16T19:15:35.013Z,12.47
2019-04-16T19:18:18.609Z,12.88
2019-04-16T19:20:37.612Z,12.07
2019-04-16T19:23:08.031Z,11.88
2019-04-16T19:25:38.382Z,11.90
2019-04-16T19:28:08.731Z,11.03
2019-04-16T19:30:39.115Z,12.25
2019-04-16T19:33:09.443Z,12.00
2019-04-16T19:35:40.765Z,11.25
2019-04-16T19:38:11.129Z,12.37
2019-04-16T19:40:41.467Z,12.68
2019-04-16T19:43:11.827Z,11.33
2019-04-16T19:45:43.729Z,12.18
2019-04-16T19:48:17.764Z,11.85
2019-04-16T19:50:46.556Z,11.35
2019-04-16T19:53:16.919Z,12.37
2019-04-16T19:55:47.265Z,11.80
2019-04-16T19:58:17.615Z,11.33
2019-04-16T20:00:47.976Z,11.63
2019-04-16T20:03:19.390Z,11.80
2019-04-16T20:05:49.738Z,11.65
2019-04-16T20:08:20.086Z,12.13
2019-04-16T20:10:50.451Z,12.40
2019-04-16T20:13:20.796Z,11.08
2019-04-16T20:15:51.143Z,11.55
2019-04-16T20:18:23.135Z,12.25
2019-04-16T20:20:53.496Z,12.40
2019-04-16T20:23:23.840Z,13.00
2019-04-16T20:25:58.666Z,12.80
2019-04-16T20:28:26.225Z,11.68
2019-04-16T20:31:01.386Z,13.68
2019-04-16T20:33:28.692Z,12.63
2019-04-16T20:35:58.973Z,12.47
2019-04-16T20:38:30.117Z,12.65
2019-04-16T20:41:00.564Z,11.40
2019-04-16T20:43:32.039Z,11.18
2019-04-16T20:46:02.397Z,11.60
2019-04-16T20:48:32.747Z,10.38
2019-04-16T20:51:03.175Z,10.32
2019-04-16T20:53:33.516Z,9.90
2019-04-16T20:56:04.177Z,10.03
2019-04-16T20:58:34.595Z,10.28
2019-04-16T21:01:05.409Z,9.90
2019-04-16T21:03:35.868Z,11.75
2019-04-16T21:06:07.816Z,10.45
2019-04-16T21:08:38.255Z,10.98
2019-04-16T21:11:09.607Z,10.65
2019-04-16T21:13:40.151Z,10.32
2019-04-16T21:16:10.515Z,10.25
2019-04-16T21:18:40.866Z,10.45
2019-04-16T21:21:11.214Z,10.03
2019-04-16T21:23:41.566Z,9.45
2019-04-16T21:26:11.910Z,9.88
2019-04-16T21:29:02.130Z,9.05
2019-04-16T21:31:32.559Z,9.13
2019-04-16T21:34:07.569Z,10.05
2019-04-16T21:36:45.586Z,9.28
2019-04-16T21:39:26.448Z,8.60
2019-04-16T21:42:00.853Z,9.00
2019-04-16T21:44:28.843Z,9.30
2019-04-16T21:46:59.185Z,9.53
2019-04-16T21:49:38.251Z,9.00
2019-04-16T21:52:07.848Z,8.73
2019-04-16T21:54:39.345Z,8.65
2019-04-16T21:57:13.274Z,9.28
2019-04-16T21:59:42.847Z,8.53
2019-04-16T22:02:15.968Z,9.58
2019-04-16T22:04:46.310Z,9.88
2019-04-16T22:07:16.653Z,9.90
2019-04-16T22:09:46.994Z,10.68
2019-04-16T22:12:17.349Z,10.43
2019-04-16T22:14:47.690Z,10.82
2019-04-16T22:17:18.036Z,8.93
2019-04-16T22:19:54.339Z,9.33
2019-04-16T22:22:21.478Z,9.63
2019-04-16T22:24:54.822Z,9.30
2019-04-16T22:27:24.444Z,9.83
2019-04-16T22:29:56.424Z,9.78
2019-04-16T22:32:27.082Z,10.25
2019-04-16T22:34:59.012Z,10.10
2019-04-16T22:37:29.366Z,10.13
2019-04-16T22:40:10.485Z,9.85
2019-04-16T22:43:05.227Z,10.20
2019-04-16T22:45:34.959Z,9.58
2019-04-16T22:48:05.313Z,9.95
2019-04-16T22:50:38.008Z,8.85
2019-04-16T22:53:07.962Z,9.85
2019-04-16T22:55:42.361Z,9.20
2019-04-16T22:58:12.251Z,9.93
2019-04-16T23:00:45.090Z,8.83
2019-04-16T23:03:16.589Z,8.80
2019-04-16T23:05:47.599Z,9.50
2019-04-16T23:08:17.942Z,9.33
2019-04-16T23:10:50.546Z,10.25
2019-04-16T23:13:20.417Z,9.50
2019-04-16T23:15:50.767Z,9.10
2019-04-16T23:18:21.104Z,9.13
2019-04-16T23:20:51.467Z,10.00
2019-04-16T23:23:21.811Z,10.23
2019-04-16T23:25:52.166Z,9.90
2019-04-16T23:28:22.509Z,9.38
2019-04-16T23:30:52.855Z,9.53
2019-04-16T23:33:23.192Z,9.50
2019-04-16T23:35:53.542Z,9.60
2019-04-16T23:38:23.876Z,8.75
2019-04-16T23:40:54.243Z,8.78
2019-04-16T23:43:31.923Z,9.18
2019-04-16T23:46:20.418Z,8.10
2019-04-16T23:48:52.404Z,9.25
2019-04-16T23:51:28.676Z,9.28
2019-04-16T23:54:08.282Z,9.38
2019-04-16T23:56:43.773Z,9.18
2019-04-16T23:59:21.719Z,8.50
